createdAt,value
2024-01-25T00:01:58.527Z,43.36
2024-01-25T00:04:25.763Z,43.42
2024-01-25T00:06:53.153Z,43.37
2024-01-25T00:09:20.231Z,43.70
2024-01-25T00:11:47.733Z,43.42
2024-01-25T00:14:15.662Z,43.54
2024-01-25T00:16:43.405Z,43.50
2024-01-25T00:19:11.130Z,43.50
2024-01-25T00:21:45.047Z,43.47
2024-01-25T00:24:15.591Z,43.33
2024-01-25T00:26:42.731Z,43.29
2024-01-25T00:29:09.863Z,43.64
2024-01-25T00:31:36.884Z,43.22
2024-01-25T00:34:05.052Z,43.40
2024-01-25T00:36:32.589Z,43.46
2024-01-25T00:39:00.067Z,43.43
2024-01-25T00:41:28.732Z,43.44
2024-01-25T00:43:56.119Z,43.41
2024-01-25T00:46:23.522Z,43.43
2024-01-25T00:48:51.260Z,43.32
2024-01-25T00:51:24.318Z,43.36
2024-01-25T00:53:52.203Z,43.33
2024-01-25T00:56:19.671Z,43.48
2024-01-25T00:58:47.768Z,43.33
2024-01-25T01:01:15.223Z,43.30
2024-01-25T01:03:42.969Z,43.25
2024-01-25T01:06:11.125Z,43.32
2024-01-25T01:08:38.790Z,42.95
2024-01-25T01:11:06.511Z,43.28
2024-01-25T01:13:34.128Z,43.03
2024-01-25T01:16:01.327Z,43.11
2024-01-25T01:18:28.723Z,43.03
2024-01-25T01:20:56.223Z,42.97
2024-01-25T01:23:23.333Z,42.97
2024-01-25T01:25:50.525Z,42.75
2024-01-25T01:28:18.385Z,43.09
2024-01-25T01:30:47.120Z,42.90
2024-01-25T01:33:14.699Z,42.97
2024-01-25T01:35:42.108Z,42.90
2024-01-25T01:38:09.165Z,42.87
2024-01-25T01:40:36.642Z,42.88
2024-01-25T01:43:04.776Z,42.98
2024-01-25T01:45:32.013Z,42.77
2024-01-25T01:48:01.326Z,42.79
2024-01-25T01:50:29.366Z,43.03
2024-01-25T01:52:56.626Z,42.78
2024-01-25T01:55:24.801Z,42.83
2024-01-25T01:57:52.978Z,43.08
2024-01-25T02:00:22.255Z,42.87
2024-01-25T02:02:49.639Z,42.78
2024-01-25T02:05:17.402Z,42.83
2024-01-25T02:07:44.815Z,42.83
2024-01-25T02:10:12.891Z,42.88
2024-01-25T02:12:40.347Z,42.86
2024-01-25T02:15:07.835Z,42.85
2024-01-25T02:17:35.578Z,42.63
2024-01-25T02:20:04.787Z,42.74
2024-01-25T02:22:31.946Z,42.76
2024-01-25T02:24:59.199Z,42.70
2024-01-25T02:27:26.488Z,42.68
2024-01-25T02:29:53.976Z,42.83
2024-01-25T02:32:21.593Z,42.83
2024-01-25T02:34:48.882Z,42.67
2024-01-25T02:37:16.464Z,42.65
2024-01-25T02:39:44.639Z,42.66
2024-01-25T02:42:12.257Z,42.71
2024-01-25T02:44:39.579Z,42.60
2024-01-25T02:47:06.762Z,42.57
2024-01-25T02:49:34.017Z,42.58
2024-01-25T02:52:01.938Z,42.71
2024-01-25T02:54:28.966Z,42.53
2024-01-25T02:56:56.034Z,42.59
2024-01-25T02:59:23.382Z,42.66
2024-01-25T03:01:50.615Z,42.66
2024-01-25T03:04:18.676Z,42.62
2024-01-25T03:06:46.436Z,42.68
2024-01-25T03:09:14.391Z,42.54
2024-01-25T03:11:41.841Z,42.35
2024-01-25T03:14:09.031Z,42.39
2024-01-25T03:16:36.136Z,42.50
2024-01-25T03:19:03.973Z,42.42
2024-01-25T03:21:31.271Z,42.54
2024-01-25T03:23:58.505Z,42.43
2024-01-25T03:26:28.097Z,42.57
2024-01-25T03:28:55.497Z,42.79
2024-01-25T03:31:22.561Z,42.36
2024-01-25T03:33:49.927Z,42.46
2024-01-25T03:36:17.380Z,42.35
2024-01-25T03:38:44.961Z,42.50
2024-01-25T03:41:12.179Z,42.51
2024-01-25T03:43:44.028Z,42.36
2024-01-25T03:46:15.702Z,42.40
2024-01-25T03:48:43.660Z,42.34
2024-01-25T03:51:11.176Z,42.44
2024-01-25T03:53:38.396Z,42.33
2024-01-25T03:56:11.592Z,42.28
2024-01-25T03:58:39.562Z,42.45
2024-01-25T04:01:07.254Z,42.38
2024-01-25T04:03:34.522Z,42.43
2024-01-25T04:06:01.864Z,42.32
2024-01-25T04:08:28.961Z,42.16
2024-01-25T04:10:56.038Z,42.17
2024-01-25T04:13:23.587Z,42.24
2024-01-25T04:15:50.727Z,42.14
2024-01-25T04:18:18.255Z,41.93
2024-01-25T04:20:46.007Z,42.10
2024-01-25T04:23:13.172Z,42.08
2024-01-25T04:25:40.420Z,41.94
2024-01-25T04:28:07.989Z,41.81
2024-01-25T04:30:35.148Z,41.84
2024-01-25T04:33:03.555Z,41.90
2024-01-25T04:35:33.349Z,41.92
2024-01-25T04:38:00.984Z,41.77
2024-01-25T04:40:28.330Z,41.48
2024-01-25T04:42:55.581Z,41.81
2024-01-25T04:45:22.897Z,41.63
2024-01-25T04:47:50.288Z,41.85
2024-01-25T04:50:18.004Z,41.75
2024-01-25T04:52:45.545Z,41.70
2024-01-25T04:55:12.688Z,41.79
2024-01-25T04:57:39.964Z,41.82
2024-01-25T05:00:08.195Z,41.83
2024-01-25T05:02:35.328Z,41.57
2024-01-25T05:05:02.751Z,41.63
2024-01-25T05:07:31.023Z,41.62
2024-01-25T05:09:58.654Z,41.92
2024-01-25T05:12:25.849Z,41.70
2024-01-25T05:14:53.280Z,41.78
2024-01-25T05:17:20.372Z,41.61
2024-01-25T05:19:47.720Z,41.52
2024-01-25T05:22:15.168Z,41.38
2024-01-25T05:24:42.518Z,41.64
2024-01-25T05:27:10.340Z,41.64
2024-01-25T05:29:37.462Z,41.48
2024-01-25T05:32:04.804Z,41.68
2024-01-25T05:34:32.497Z,41.56
2024-01-25T05:36:59.976Z,41.43
2024-01-25T05:39:27.216Z,41.30
2024-01-25T05:41:54.272Z,41.56
2024-01-25T05:44:21.878Z,41.10
2024-01-25T05:46:49.144Z,41.43
2024-01-25T05:49:16.663Z,41.38
2024-01-25T05:51:44.304Z,40.87
2024-01-25T05:54:11.841Z,41.23
2024-01-25T05:56:38.897Z,41.32
2024-01-25T05:59:06.458Z,41.12
2024-01-25T06:01:33.692Z,41.33
2024-01-25T06:04:01.142Z,37.99
2024-01-25T06:06:28.968Z,39.91
2024-01-25T06:09:02.570Z,40.46
2024-01-25T06:11:39.382Z,40.48
2024-01-25T06:14:07.507Z,40.94
2024-01-25T06:16:35.045Z,40.86
2024-01-25T06:19:04.281Z,41.00
2024-01-25T06:21:31.602Z,40.79
2024-01-25T06:23:58.899Z,40.91
2024-01-25T06:26:26.085Z,40.96
2024-01-25T06:28:53.244Z,40.82
2024-01-25T06:31:20.605Z,41.10
2024-01-25T06:33:52.280Z,41.00
2024-01-25T06:36:23.272Z,41.27
2024-01-25T06:38:50.914Z,41.04
2024-01-25T06:41:18.463Z,41.23
2024-01-25T06:43:45.848Z,40.91
2024-01-25T06:46:13.154Z,41.09
2024-01-25T06:48:40.505Z,41.12
2024-01-25T06:51:08.122Z,41.16
2024-01-25T06:53:35.608Z,41.13
2024-01-25T06:56:03.715Z,41.13
2024-01-25T06:58:31.209Z,41.00
2024-01-25T07:00:59.016Z,41.06
2024-01-25T07:03:27.147Z,41.28
2024-01-25T07:05:54.829Z,41.35
2024-01-25T07:08:22.865Z,41.41
2024-01-25T07:10:50.075Z,41.27
2024-01-25T07:13:17.910Z,41.64
2024-01-25T07:15:45.277Z,41.53
2024-01-25T07:18:12.773Z,41.49
2024-01-25T07:20:40.268Z,41.45
2024-01-25T07:23:07.526Z,41.27
2024-01-25T07:25:35.485Z,41.12
2024-01-25T07:28:02.756Z,41.12
2024-01-25T07:30:30.235Z,41.18
2024-01-25T07:32:57.582Z,41.42
2024-01-25T07:35:25.591Z,41.33
2024-01-25T07:37:53.086Z,41.43
2024-01-25T07:40:20.551Z,41.37
2024-01-25T07:42:48.703Z,41.53
2024-01-25T07:45:16.143Z,41.51
2024-01-25T07:47:44.081Z,41.50
2024-01-25T07:50:11.975Z,41.56
2024-01-25T07:52:39.875Z,41.67
2024-01-25T07:55:07.641Z,41.58
2024-01-25T07:57:34.924Z,41.81
2024-01-25T08:00:02.258Z,41.36
2024-01-25T08:02:32.295Z,41.34
2024-01-25T08:05:00.004Z,41.49
2024-01-25T08:07:27.277Z,41.39
2024-01-25T08:09:54.761Z,41.35
2024-01-25T08:12:22.269Z,41.52
2024-01-25T08:14:49.574Z,41.53
2024-01-25T08:17:16.885Z,41.39
2024-01-25T08:19:44.224Z,41.08
2024-01-25T08:22:11.981Z,41.30
2024-01-25T08:24:41.302Z,41.20
2024-01-25T08:27:14.441Z,41.53
2024-01-25T08:29:43.496Z,41.32
2024-01-25T08:32:10.598Z,41.40
2024-01-25T08:34:38.082Z,40.90
2024-01-25T08:37:05.567Z,41.22
2024-01-25T08:39:32.800Z,41.40
2024-01-25T08:42:03.750Z,41.33
2024-01-25T08:44:31.088Z,41.33
2024-01-25T08:46:58.555Z,41.06
2024-01-25T08:49:26.288Z,41.16
2024-01-25T08:51:53.577Z,41.52
2024-01-25T08:54:21.219Z,39.54
2024-01-25T08:56:48.776Z,40.04
2024-01-25T08:59:15.994Z,40.68
2024-01-25T09:01:43.227Z,40.64
2024-01-25T09:04:10.488Z,40.96
2024-01-25T09:06:38.083Z,41.27
2024-01-25T09:09:05.550Z,41.11
2024-01-25T09:11:32.611Z,41.28
2024-01-25T09:13:59.782Z,41.21
2024-01-25T09:16:27.103Z,41.26
2024-01-25T09:18:54.715Z,41.27
2024-01-25T09:21:22.372Z,41.39
2024-01-25T09:23:50.069Z,41.01
2024-01-25T09:26:17.243Z,40.79
2024-01-25T09:28:45.264Z,40.30
2024-01-25T09:31:12.613Z,40.84
2024-01-25T09:33:39.923Z,41.14
2024-01-25T09:36:08.464Z,41.20
2024-01-25T09:38:35.633Z,41.37
2024-01-25T09:41:03.214Z,41.48
2024-01-25T09:43:32.440Z,41.45
2024-01-25T09:46:01.782Z,41.26
2024-01-25T09:48:29.682Z,41.38
2024-01-25T09:50:57.748Z,41.45
2024-01-25T09:53:26.255Z,41.56
2024-01-25T09:56:03.217Z,41.51
2024-01-25T09:58:40.048Z,41.55
2024-01-25T10:01:14.854Z,41.76
2024-01-25T10:03:48.859Z,41.42
2024-01-25T10:06:17.966Z,41.60
2024-01-25T10:08:45.524Z,41.33
2024-01-25T10:11:16.438Z,41.37
2024-01-25T10:13:44.982Z,41.53
2024-01-25T10:16:16.325Z,41.63
2024-01-25T10:18:45.474Z,41.60
2024-01-25T10:21:15.639Z,41.43
2024-01-25T10:23:51.152Z,41.81
2024-01-25T10:26:19.184Z,41.70
2024-01-25T10:28:59.111Z,41.80
2024-01-25T10:31:31.005Z,41.73
2024-01-25T10:34:01.521Z,41.60
2024-01-25T10:36:29.266Z,41.75
2024-01-25T10:38:58.784Z,41.57
2024-01-25T10:41:28.406Z,41.52
2024-01-25T10:43:56.913Z,41.56
2024-01-25T10:46:25.206Z,41.45
2024-01-25T10:48:53.854Z,41.77
2024-01-25T10:51:22.430Z,41.50
2024-01-25T10:53:50.128Z,41.53
2024-01-25T10:56:18.095Z,41.52
2024-01-25T10:58:45.512Z,41.49
2024-01-25T11:01:15.645Z,42.11
2024-01-25T11:03:47.420Z,41.74
2024-01-25T11:06:15.518Z,42.12
2024-01-25T11:08:43.505Z,39.77
2024-01-25T11:11:14.240Z,40.50
2024-01-25T11:13:43.931Z,41.37
2024-01-25T11:16:16.232Z,41.19
2024-01-25T11:18:57.475Z,41.20
2024-01-25T11:21:28.566Z,41.51
2024-01-25T11:24:03.489Z,41.26
2024-01-25T11:26:33.625Z,41.41
2024-01-25T11:29:03.697Z,41.41
2024-01-25T11:31:31.557Z,41.53
2024-01-25T11:34:03.159Z,41.28
2024-01-25T11:36:30.652Z,41.50
2024-01-25T11:38:59.292Z,41.29
2024-01-25T11:41:27.216Z,41.22
2024-01-25T11:43:54.846Z,41.48
2024-01-25T11:46:22.815Z,41.41
2024-01-25T11:48:51.023Z,41.52
2024-01-25T11:51:18.996Z,41.28
2024-01-25T11:53:46.211Z,41.34
2024-01-25T11:56:21.232Z,41.31
2024-01-25T11:58:49.204Z,41.33
2024-01-25T12:01:17.825Z,41.45
2024-01-25T12:03:45.242Z,41.41
2024-01-25T12:06:14.104Z,41.29
2024-01-25T12:08:42.602Z,41.25
2024-01-25T12:11:10.908Z,41.22
2024-01-25T12:13:41.825Z,41.54
2024-01-25T12:16:10.860Z,41.34
2024-01-25T12:18:43.454Z,41.20
2024-01-25T12:21:10.752Z,41.48
2024-01-25T12:23:42.178Z,41.44
2024-01-25T12:26:13.318Z,41.44
2024-01-25T12:28:40.700Z,41.56
2024-01-25T12:31:10.793Z,41.49
2024-01-25T12:33:38.560Z,41.26
2024-01-25T12:36:06.706Z,41.60
2024-01-25T12:38:36.518Z,41.19
2024-01-25T12:41:04.671Z,41.17
2024-01-25T12:43:32.792Z,41.14
2024-01-25T12:46:09.462Z,41.44
2024-01-25T12:48:46.539Z,34.41
2024-01-25T12:51:16.717Z,37.96
2024-01-25T12:53:44.268Z,39.63
2024-01-25T12:56:12.339Z,39.81
2024-01-25T12:58:41.472Z,40.50
2024-01-25T13:01:10.726Z,40.67
2024-01-25T13:03:39.797Z,40.52
2024-01-25T13:06:07.876Z,40.80
2024-01-25T13:08:35.144Z,40.54
2024-01-25T13:11:02.461Z,40.83
2024-01-25T13:13:29.791Z,40.87
2024-01-25T13:16:02.339Z,40.68
2024-01-25T13:18:30.115Z,40.96
2024-01-25T13:20:57.504Z,42.21
2024-01-25T13:23:24.740Z,43.31
2024-01-25T13:25:51.970Z,42.56
2024-01-25T13:28:22.700Z,42.93
2024-01-25T13:30:50.331Z,42.73
2024-01-25T13:33:17.906Z,41.88
2024-01-25T13:35:45.247Z,40.32
2024-01-25T13:38:15.951Z,39.93
2024-01-25T13:40:44.323Z,41.03
2024-01-25T13:43:12.476Z,41.49
2024-01-25T13:45:40.303Z,41.60
2024-01-25T13:48:08.059Z,41.64
2024-01-25T13:50:35.275Z,41.33
2024-01-25T13:53:02.449Z,41.54
2024-01-25T13:55:29.717Z,41.72
2024-01-25T13:57:56.829Z,41.56
2024-01-25T14:00:24.301Z,41.49
2024-01-25T14:02:51.779Z,41.63
2024-01-25T14:05:19.453Z,41.42
2024-01-25T14:07:46.630Z,41.50
2024-01-25T14:10:14.840Z,41.82
2024-01-25T14:12:42.292Z,41.64
2024-01-25T14:15:09.715Z,41.77
2024-01-25T14:17:38.477Z,41.62
2024-01-25T14:20:06.981Z,41.34
2024-01-25T14:22:36.415Z,41.57
2024-01-25T14:25:05.424Z,41.70
2024-01-25T14:27:34.404Z,41.45
2024-01-25T14:30:01.908Z,41.23
2024-01-25T14:32:29.400Z,41.29
2024-01-25T14:34:56.855Z,41.63
2024-01-25T14:37:23.857Z,41.67
2024-01-25T14:40:02.854Z,41.34
2024-01-25T14:42:40.255Z,41.57
2024-01-25T14:45:07.999Z,41.26
2024-01-25T14:47:35.118Z,41.59
2024-01-25T14:50:02.174Z,41.54
2024-01-25T14:52:29.489Z,41.72
2024-01-25T14:54:56.778Z,41.94
2024-01-25T14:57:23.980Z,41.80
2024-01-25T14:59:51.216Z,41.84
2024-01-25T15:02:18.820Z,42.33
2024-01-25T15:04:46.358Z,42.19
2024-01-25T15:07:13.954Z,42.33
2024-01-25T15:09:41.384Z,42.24
2024-01-25T15:12:09.880Z,42.34
2024-01-25T15:14:37.093Z,42.46
2024-01-25T15:17:04.842Z,42.45
2024-01-25T15:19:31.978Z,42.48
2024-01-25T15:21:59.550Z,42.63
2024-01-25T15:24:28.127Z,42.40
2024-01-25T15:26:55.228Z,42.39
2024-01-25T15:29:22.435Z,42.59
2024-01-25T15:31:49.576Z,42.29
2024-01-25T15:34:17.466Z,42.49
2024-01-25T15:36:45.980Z,42.31
2024-01-25T15:39:13.211Z,42.36
2024-01-25T15:41:40.336Z,42.60
2024-01-25T15:44:07.907Z,42.65
2024-01-25T15:46:35.117Z,42.76
2024-01-25T15:49:02.933Z,42.86
2024-01-25T15:51:30.514Z,42.82
2024-01-25T15:53:58.181Z,42.71
2024-01-25T15:56:25.645Z,42.95
2024-01-25T15:58:54.998Z,42.85
2024-01-25T16:01:22.695Z,42.92
2024-01-25T16:03:50.159Z,42.64
2024-01-25T16:06:18.740Z,42.83
2024-01-25T16:08:46.247Z,42.77
2024-01-25T16:11:14.181Z,42.60
2024-01-25T16:13:43.804Z,42.63
2024-01-25T16:16:12.519Z,42.65
2024-01-25T16:18:39.760Z,42.44
2024-01-25T16:21:07.262Z,42.52
2024-01-25T16:23:34.398Z,42.29
2024-01-25T16:26:01.911Z,42.47
2024-01-25T16:28:29.801Z,42.56
2024-01-25T16:30:57.555Z,42.72
2024-01-25T16:33:25.577Z,42.34
2024-01-25T16:35:53.287Z,42.42
2024-01-25T16:38:20.604Z,42.53
2024-01-25T16:40:47.773Z,42.31
2024-01-25T16:43:16.859Z,42.62
2024-01-25T16:45:45.640Z,42.83
2024-01-25T16:48:15.546Z,42.59
2024-01-25T16:50:43.781Z,42.58
2024-01-25T16:53:10.976Z,42.63
2024-01-25T16:55:38.422Z,42.48
2024-01-25T16:58:05.591Z,42.38
2024-01-25T17:00:34.182Z,42.48
2024-01-25T17:03:01.596Z,42.64
2024-01-25T17:05:28.660Z,42.43
2024-01-25T17:07:55.977Z,42.17
2024-01-25T17:10:23.035Z,42.39
2024-01-25T17:12:50.363Z,42.27
2024-01-25T17:15:17.787Z,42.42
2024-01-25T17:17:44.849Z,42.38
2024-01-25T17:20:13.511Z,42.34
2024-01-25T17:22:40.791Z,42.17
2024-01-25T17:25:08.454Z,42.30
2024-01-25T17:27:35.673Z,42.13
2024-01-25T17:30:03.390Z,42.28
2024-01-25T17:32:30.520Z,42.20
2024-01-25T17:34:57.813Z,42.61
2024-01-25T17:37:25.057Z,42.48
2024-01-25T17:39:52.351Z,42.37
2024-01-25T17:42:19.567Z,42.50
2024-01-25T17:44:46.900Z,42.44
2024-01-25T17:47:13.951Z,42.41
2024-01-25T17:49:41.165Z,42.32
2024-01-25T17:52:10.727Z,42.36
2024-01-25T17:54:40.114Z,42.66
2024-01-25T17:57:07.883Z,42.51
2024-01-25T17:59:34.843Z,42.52
2024-01-25T18:02:06.056Z,42.27
2024-01-25T18:04:36.664Z,42.51
2024-01-25T18:07:04.063Z,42.55
2024-01-25T18:09:31.461Z,42.56
2024-01-25T18:11:59.045Z,42.40
2024-01-25T18:14:27.160Z,42.71
2024-01-25T18:16:54.441Z,42.54
2024-01-25T18:19:24.731Z,42.69
2024-01-25T18:21:52.851Z,42.48
2024-01-25T18:24:20.391Z,42.73
2024-01-25T18:26:48.447Z,42.65
2024-01-25T18:29:16.176Z,42.64
2024-01-25T18:31:43.147Z,42.46
2024-01-25T18:34:10.454Z,42.37
2024-01-25T18:36:38.993Z,42.71
2024-01-25T18:39:06.694Z,42.43
2024-01-25T18:41:35.347Z,42.49
2024-01-25T18:44:03.377Z,42.77
2024-01-25T18:46:31.747Z,42.78
2024-01-25T18:48:59.425Z,42.64
2024-01-25T18:51:27.203Z,42.92
2024-01-25T18:53:55.444Z,42.79
2024-01-25T18:56:27.235Z,42.77
2024-01-25T18:58:57.335Z,42.74
2024-01-25T19:01:25.614Z,42.84
2024-01-25T19:03:53.764Z,42.68
2024-01-25T19:06:21.791Z,42.81
2024-01-25T19:08:52.487Z,42.84
2024-01-25T19:11:20.095Z,42.91
2024-01-25T19:13:47.210Z,42.92
2024-01-25T19:16:14.865Z,42.89
2024-01-25T19:18:42.550Z,42.91
2024-01-25T19:21:10.315Z,42.55
2024-01-25T19:23:38.259Z,42.98
2024-01-25T19:26:05.768Z,42.84
2024-01-25T19:28:33.568Z,42.94
2024-01-25T19:31:00.884Z,42.85
2024-01-25T19:33:31.644Z,43.02
2024-01-25T19:35:58.920Z,42.88
2024-01-25T19:38:26.212Z,42.92
2024-01-25T19:40:53.414Z,42.99
2024-01-25T19:43:20.776Z,43.04
2024-01-25T19:45:50.169Z,42.96
2024-01-25T19:48:17.926Z,42.86
2024-01-25T19:50:45.559Z,43.03
2024-01-25T19:53:13.123Z,43.34
2024-01-25T19:55:40.274Z,42.92
2024-01-25T19:58:07.649Z,43.11
2024-01-25T20:00:35.151Z,42.93
2024-01-25T20:03:03.173Z,42.79
2024-01-25T20:05:32.775Z,42.94
2024-01-25T20:08:01.947Z,42.76
2024-01-25T20:10:29.593Z,43.00
2024-01-25T20:12:58.742Z,42.88
2024-01-25T20:15:26.550Z,42.98
2024-01-25T20:17:54.715Z,43.09
2024-01-25T20:20:31.029Z,42.98
2024-01-25T20:23:06.736Z,42.77
2024-01-25T20:25:34.546Z,42.91
2024-01-25T20:28:01.598Z,43.10
2024-01-25T20:30:29.992Z,43.21
2024-01-25T20:32:57.691Z,43.08
2024-01-25T20:35:25.261Z,43.30
2024-01-25T20:37:53.125Z,43.07
2024-01-25T20:40:20.412Z,43.15
2024-01-25T20:42:47.894Z,43.03
2024-01-25T20:45:15.227Z,42.77
2024-01-25T20:47:43.225Z,43.38
2024-01-25T20:50:16.968Z,43.10
2024-01-25T20:52:47.156Z,43.19
2024-01-25T20:55:14.796Z,43.21
2024-01-25T20:57:41.941Z,43.24
2024-01-25T21:00:10.870Z,42.92
2024-01-25T21:02:38.966Z,43.30
2024-01-25T21:05:06.990Z,43.22
2024-01-25T21:07:34.369Z,42.91
2024-01-25T21:10:01.949Z,43.25
2024-01-25T21:12:29.634Z,43.22
2024-01-25T21:14:57.043Z,43.30
2024-01-25T21:17:24.440Z,43.44
2024-01-25T21:19:51.609Z,43.53
2024-01-25T21:22:19.177Z,43.34
2024-01-25T21:24:46.451Z,43.59
2024-01-25T21:27:13.473Z,43.62
2024-01-25T21:29:40.612Z,43.73
2024-01-25T21:32:07.874Z,44.07
2024-01-25T21:34:35.488Z,43.67
2024-01-25T21:37:02.768Z,43.54
2024-01-25T21:39:30.102Z,43.49
2024-01-25T21:41:57.199Z,43.61
2024-01-25T21:44:24.394Z,43.60
2024-01-25T21:46:52.135Z,43.26
2024-01-25T21:49:20.216Z,43.79
2024-01-25T21:51:47.880Z,43.39
2024-01-25T21:54:15.624Z,43.51
2024-01-25T21:56:42.960Z,43.61
2024-01-25T21:59:10.073Z,43.34
2024-01-25T22:01:38.568Z,43.14
2024-01-25T22:04:06.155Z,43.10
2024-01-25T22:06:33.957Z,43.31
2024-01-25T22:09:11.887Z,43.23
2024-01-25T22:11:39.050Z,42.73
2024-01-25T22:14:06.130Z,42.68
2024-01-25T22:16:33.251Z,43.04
2024-01-25T22:19:00.604Z,43.20
2024-01-25T22:21:28.427Z,43.37
2024-01-25T22:23:55.462Z,43.47
2024-01-25T22:26:22.593Z,43.49
2024-01-25T22:28:49.717Z,43.47
2024-01-25T22:31:17.264Z,43.70
2024-01-25T22:33:44.657Z,43.36
2024-01-25T22:36:12.198Z,43.32
2024-01-25T22:38:39.734Z,43.37
2024-01-25T22:41:07.370Z,43.41
2024-01-25T22:43:34.879Z,43.42
2024-01-25T22:46:02.181Z,43.25
2024-01-25T22:48:29.752Z,43.08
2024-01-25T22:51:02.549Z,43.14
2024-01-25T22:53:33.465Z,43.13
2024-01-25T22:56:01.032Z,43.45
2024-01-25T22:58:28.903Z,43.38
2024-01-25T23:00:56.794Z,43.20
2024-01-25T23:03:24.331Z,43.45
2024-01-25T23:05:51.900Z,43.49
2024-01-25T23:08:19.301Z,43.07
2024-01-25T23:10:46.882Z,43.28
2024-01-25T23:13:15.054Z,43.00
2024-01-25T23:15:42.709Z,43.29
2024-01-25T23:18:11.731Z,43.35
2024-01-25T23:20:39.019Z,43.15
2024-01-25T23:23:06.258Z,43.19
2024-01-25T23:25:33.522Z,42.98
2024-01-25T23:28:00.784Z,42.77
2024-01-25T23:30:28.001Z,42.81
2024-01-25T23:32:56.001Z,43.02
2024-01-25T23:35:24.085Z,42.95
2024-01-25T23:37:51.806Z,42.77
2024-01-25T23:40:20.233Z,43.26
2024-01-25T23:42:48.159Z,42.98
2024-01-25T23:45:16.315Z,42.95
2024-01-25T23:47:44.168Z,42.97
2024-01-25T23:50:12.396Z,42.94
2024-01-25T23:52:40.141Z,42.99
2024-01-25T23:55:08.451Z,43.03
2024-01-25T23:57:36.225Z,42.92
